Al Cenac — WDF9939 — position and weather

sailwx.info

Track history (hours):
 
Tides and Currents Weather Stations Pressure Air Temp Water Temp Dewpoint Dewpoint Depression Visibility Wind Speed Wind Dir Waves Ship Positions

Al Cenac

Owner: Al Cenac Towing LLC, Houma, LA. More information available from US FCC via Universal Licensing System and Coast Guard Vessel Documentation Center.

Last reported at 2018-Jun-18 15:00 UTC. Time now 2018-Jun-18 15:17 UTC.
Position N 29°33' W 090°42'.

Length 22 m; draft 8.6 m.

Type: Tug. MMSI: 367510420.

Date/timePositionNaut miles runAvg speedWind from/ knotsBaromVisibWave heightAir tempDewpointWater temp
2018-Jun-18 15:00N 29°33' W 090°42'0 0.7
2018-Jun-18 14:30N 29°33' W 090°42'0 0.1
2018-Jun-18 14:00N 29°33' W 090°42'0 0.8
2018-Jun-18 13:30N 29°33' W 090°42'0 0.0
2018-Jun-18 13:00N 29°33' W 090°42'0 0.0
2018-Jun-18 12:30N 29°33' W 090°42'0 0.0
2018-Jun-18 12:00N 29°33' W 090°42'0 0.0
2018-Jun-18 11:30N 29°33' W 090°42'1 2.8
2018-Jun-18 11:00N 29°34' W 090°43'0 0.4
2018-Jun-18 10:30N 29°34' W 090°43'0 0.0
2018-Jun-18 09:59N 29°34' W 090°43'0 0.0
2018-Jun-18 09:30N 29°34' W 090°43'0 0.0
2018-Jun-18 08:58N 29°34' W 090°43'0 0.0
2018-Jun-18 08:30N 29°34' W 090°43'0 0.0
2018-Jun-18 08:00N 29°34' W 090°43'0 0.0
2018-Jun-18 07:30N 29°34' W 090°43'0 0.0
2018-Jun-18 07:00N 29°34' W 090°43'0 0.0
2018-Jun-18 06:29N 29°34' W 090°43'0 0.0
2018-Jun-18 05:59N 29°34' W 090°43'0 0.0
2018-Jun-18 05:30N 29°34' W 090°43'0 0.0
2018-Jun-18 05:00N 29°34' W 090°43'0 0.0
2018-Jun-18 04:30N 29°34' W 090°43'0 0.0
2018-Jun-18 04:00N 29°34' W 090°43'0 0.0
2018-Jun-18 03:30N 29°34' W 090°43'0 0.0
2018-Jun-18 03:00N 29°34' W 090°43'0 0.0
2018-Jun-18 02:30N 29°34' W 090°43'0 0.0
2018-Jun-18 02:00N 29°34' W 090°43'0 0.0
2018-Jun-18 01:30N 29°34' W 090°43'0 0.0
2018-Jun-18 00:58N 29°34' W 090°43'0 0.0
2018-Jun-18 00:28N 29°34' W 090°43'0 0.0
2018-Jun-17 23:58N 29°34' W 090°43'0 0.0
2018-Jun-17 23:28N 29°34' W 090°43'0 0.0
2018-Jun-17 22:59N 29°34' W 090°43'0 0.0
2018-Jun-17 22:30N 29°34' W 090°43'0 0.0
2018-Jun-17 21:57N 29°34' W 090°43'0 0.0
2018-Jun-17 21:30N 29°34' W 090°43'0 0.0
2018-Jun-17 21:00N 29°34' W 090°43'0 0.0
2018-Jun-17 20:29N 29°34' W 090°43'0 0.0
2018-Jun-17 19:58N 29°34' W 090°43'0 0.0
2018-Jun-17 19:30N 29°34' W 090°43'0 0.0
2018-Jun-17 19:00N 29°34' W 090°43'0 0.0
2018-Jun-17 18:28N 29°34' W 090°43'0 0.0
2018-Jun-17 18:00N 29°34' W 090°43'0 0.0
2018-Jun-17 17:30N 29°34' W 090°43'0 0.0
2018-Jun-17 16:59N 29°34' W 090°43'0 0.0
2018-Jun-17 16:30N 29°34' W 090°43'0 0.0
2018-Jun-17 16:00N 29°34' W 090°43'0 0.0
2018-Jun-17 15:29N 29°34' W 090°43'0 0.0
2018-Jun-17 14:59N 29°34' W 090°43'0 0.0
2018-Jun-17 14:29N 29°34' W 090°43'0 0.0
2018-Jun-17 13:54N 29°34' W 090°43'0 0.0
2018-Jun-17 13:30N 29°34' W 090°43'0 0.0
2018-Jun-17 13:00N 29°34' W 090°43'0 0.0
2018-Jun-17 12:30N 29°34' W 090°43'1 2.6
2018-Jun-17 12:00N 29°33' W 090°42'0 0.7
2018-Jun-17 11:30N 29°33' W 090°42'2 3.4
2018-Jun-17 11:00N 29°34' W 090°43'2 3.6
2018-Jun-17 10:30N 29°33' W 090°45'2 3.9
2018-Jun-17 10:00N 29°34' W 090°43'2 3.7
2018-Jun-17 09:30N 29°33' W 090°42'0 0.0
2018-Jun-17 09:00N 29°33' W 090°42'1 1.3
2018-Jun-17 08:30N 29°33' W 090°42'2 3.8
2018-Jun-17 08:00N 29°34' W 090°44'1 2.4
2018-Jun-17 07:30N 29°33' W 090°45'2 3.3
2018-Jun-17 07:00N 29°32' W 090°47'3 6.4
2018-Jun-17 06:30N 29°32' W 090°51'3 6.4
2018-Jun-17 06:00N 29°33' W 090°54'4 6.3
2018-Jun-17 05:19N 29°36' W 090°58'  
Track history (hours):
 
Tides and Currents Weather Stations Pressure Air Temp Water Temp Dewpoint Dewpoint Depression Visibility Wind Speed Wind Dir Waves Ship Positions

Al Cenac

Owner: Al Cenac Towing LLC, Houma, LA. More information available from US FCC via Universal Licensing System and Coast Guard Vessel Documentation Center.

Last reported at 2018-Jun-18 15:00 UTC. Time now 2018-Jun-18 15:17 UTC.
Position N 29°33' W 090°42'.

Length 22 m; draft 8.6 m.

Type: Tug. MMSI: 367510420.

Date/timePositionNaut miles runAvg speedWind from/ knotsBaromVisibWave heightAir tempDewpointWater temp
2018-Jun-18 15:00N 29°33' W 090°42'0 0.7
2018-Jun-18 14:30N 29°33' W 090°42'0 0.1
2018-Jun-18 14:00N 29°33' W 090°42'0 0.8
2018-Jun-18 13:30N 29°33' W 090°42'0 0.0
2018-Jun-18 13:00N 29°33' W 090°42'0 0.0
2018-Jun-18 12:30N 29°33' W 090°42'0 0.0
2018-Jun-18 12:00N 29°33' W 090°42'0 0.0
2018-Jun-18 11:30N 29°33' W 090°42'1 2.8
2018-Jun-18 11:00N 29°34' W 090°43'0 0.4
2018-Jun-18 10:30N 29°34' W 090°43'0 0.0
2018-Jun-18 09:59N 29°34' W 090°43'0 0.0
2018-Jun-18 09:30N 29°34' W 090°43'0 0.0
2018-Jun-18 08:58N 29°34' W 090°43'0 0.0
2018-Jun-18 08:30N 29°34' W 090°43'0 0.0
2018-Jun-18 08:00N 29°34' W 090°43'0 0.0
2018-Jun-18 07:30N 29°34' W 090°43'0 0.0
2018-Jun-18 07:00N 29°34' W 090°43'0 0.0
2018-Jun-18 06:29N 29°34' W 090°43'0 0.0
2018-Jun-18 05:59N 29°34' W 090°43'0 0.0
2018-Jun-18 05:30N 29°34' W 090°43'0 0.0
2018-Jun-18 05:00N 29°34' W 090°43'0 0.0
2018-Jun-18 04:30N 29°34' W 090°43'0 0.0
2018-Jun-18 04:00N 29°34' W 090°43'0 0.0
2018-Jun-18 03:30N 29°34' W 090°43'0 0.0
2018-Jun-18 03:00N 29°34' W 090°43'0 0.0
2018-Jun-18 02:30N 29°34' W 090°43'0 0.0
2018-Jun-18 02:00N 29°34' W 090°43'0 0.0
2018-Jun-18 01:30N 29°34' W 090°43'0 0.0
2018-Jun-18 00:58N 29°34' W 090°43'0 0.0
2018-Jun-18 00:28N 29°34' W 090°43'0 0.0
2018-Jun-17 23:58N 29°34' W 090°43'0 0.0
2018-Jun-17 23:28N 29°34' W 090°43'0 0.0
2018-Jun-17 22:59N 29°34' W 090°43'0 0.0
2018-Jun-17 22:30N 29°34' W 090°43'0 0.0
2018-Jun-17 21:57N 29°34' W 090°43'0 0.0
2018-Jun-17 21:30N 29°34' W 090°43'0 0.0
2018-Jun-17 21:00N 29°34' W 090°43'0 0.0
2018-Jun-17 20:29N 29°34' W 090°43'0 0.0
2018-Jun-17 19:58N 29°34' W 090°43'0 0.0
2018-Jun-17 19:30N 29°34' W 090°43'0 0.0
2018-Jun-17 19:00N 29°34' W 090°43'0 0.0
2018-Jun-17 18:28N 29°34' W 090°43'0 0.0
2018-Jun-17 18:00N 29°34' W 090°43'0 0.0
2018-Jun-17 17:30N 29°34' W 090°43'0 0.0
2018-Jun-17 16:59N 29°34' W 090°43'0 0.0
2018-Jun-17 16:30N 29°34' W 090°43'0 0.0
2018-Jun-17 16:00N 29°34' W 090°43'0 0.0
2018-Jun-17 15:29N 29°34' W 090°43'0 0.0
2018-Jun-17 14:59N 29°34' W 090°43'0 0.0
2018-Jun-17 14:29N 29°34' W 090°43'0 0.0
2018-Jun-17 13:54N 29°34' W 090°43'0 0.0
2018-Jun-17 13:30N 29°34' W 090°43'0 0.0
2018-Jun-17 13:00N 29°34' W 090°43'0 0.0
2018-Jun-17 12:30N 29°34' W 090°43'1 2.6
2018-Jun-17 12:00N 29°33' W 090°42'0 0.7
2018-Jun-17 11:30N 29°33' W 090°42'2 3.4
2018-Jun-17 11:00N 29°34' W 090°43'2 3.6
2018-Jun-17 10:30N 29°33' W 090°45'2 3.9
2018-Jun-17 10:00N 29°34' W 090°43'2 3.7
2018-Jun-17 09:30N 29°33' W 090°42'0 0.0
2018-Jun-17 09:00N 29°33' W 090°42'1 1.3
2018-Jun-17 08:30N 29°33' W 090°42'2 3.8
2018-Jun-17 08:00N 29°34' W 090°44'1 2.4
2018-Jun-17 07:30N 29°33' W 090°45'2 3.3
2018-Jun-17 07:00N 29°32' W 090°47'3 6.4
2018-Jun-17 06:30N 29°32' W 090°51'3 6.4
2018-Jun-17 06:00N 29°33' W 090°54'4 6.3
2018-Jun-17 05:19N 29°36' W 090°58'  

Dump ship's entire track history